Time;durP1;ratioP1;P1;durP2;ratioP2;P2;SDS_P1;SDS_P2;PMS_P1;PMS_P2;Temp;Humidity;BMP_temperature;BMP_pressure;BME280_temperature;BME280_humidity;BME280_pressure;Samples;Min_cycle;Max_cycle;Signal;HPM_P1;HPM_P2
2023/12/04 00:01:27;;;;;;;32.47;22.17;;;;;;;;;;5067218;28;20405;-71
2023/12/04 00:03:53;;;;;;;24.20;17.65;;;;;;;;;;5067570;28;20450;-73
2023/12/04 00:06:18;;;;;;;26.92;20.88;;;;;;;;;;5069911;28;20094;-74
2023/12/04 00:08:44;;;;;;;23.95;19.63;;;;;;;;;;5069637;28;20028;-77
2023/12/04 00:11:09;;;;;;;27.75;18.88;;;;;;;;;;5063907;28;20032;-74
2023/12/04 00:13:35;;;;;;;17.38;13.95;;;;;;;;;;5077881;28;20028;-71
2023/12/04 00:16:00;;;;;;;16.92;14.43;;;;;;;;;;5075874;28;20035;-77
2023/12/04 00:18:25;;;;;;;13.93;12.02;;;;;;;;;;5069180;28;20028;-72
2023/12/04 00:20:51;;;;;;;23.30;17.30;;;;;;;;;;5053993;28;20031;-76
2023/12/04 00:23:16;;;;;;;20.73;14.35;;;;;;;;;;5067911;28;20065;-73
2023/12/04 00:25:42;;;;;;;11.30;10.02;;;;;;;;;;5066802;28;20070;-72
2023/12/04 00:28:07;;;;;;;12.00;10.77;;;;;;;;;;5074255;28;20020;-71
2023/12/04 00:30:32;;;;;;;23.90;16.88;;;;;;;;;;5059954;28;20024;-72
2023/12/04 00:32:58;;;;;;;16.70;14.60;;;;;;;;;;5073729;28;21123;-76
2023/12/04 00:35:23;;;;;;;17.27;13.77;;;;;;;;;;5072690;28;20078;-72
2023/12/04 00:37:48;;;;;;;11.77;10.57;;;;;;;;;;5071397;28;20032;-74
2023/12/04 00:40:14;;;;;;;23.08;16.67;;;;;;;;;;5052644;28;20031;-74
2023/12/04 00:42:39;;;;;;;20.38;15.40;;;;;;;;;;5073061;28;20601;-74
2023/12/04 00:45:05;;;;;;;23.20;17.55;;;;;;;;;;5070394;28;20050;-74
2023/12/04 00:47:30;;;;;;;14.50;10.80;;;;;;;;;;5074463;28;20123;-72
2023/12/04 00:49:56;;;;;;;19.05;14.68;;;;;;;;;;5068649;28;20110;-72
2023/12/04 00:52:21;;;;;;;18.23;14.38;;;;;;;;;;5067858;28;20129;-73
2023/12/04 00:54:46;;;;;;;21.05;16.55;;;;;;;;;;5071821;28;20033;-77
2023/12/04 00:57:12;;;;;;;13.98;12.23;;;;;;;;;;5069810;28;20633;-75
2023/12/04 00:59:37;;;;;;;11.43;10.27;;;;;;;;;;5070797;28;20063;-72
2023/12/04 01:02:03;;;;;;;10.57;9.50;;;;;;;;;;5066445;28;20032;-77
2023/12/04 01:04:28;;;;;;;13.07;11.77;;;;;;;;;;5071654;28;20028;-73
2023/12/04 01:06:53;;;;;;;13.60;12.18;;;;;;;;;;5074361;28;20394;-73
2023/12/04 01:09:23;;;;;;;11.27;10.18;;;;;;;;;;5074883;28;20106;-72
2023/12/04 01:11:49;;;;;;;10.98;9.27;;;;;;;;;;5061994;28;20025;-73
2023/12/04 01:14:15;;;;;;;11.80;10.07;;;;;;;;;;5074592;28;20043;-72
2023/12/04 01:16:40;;;;;;;13.30;11.85;;;;;;;;;;5064069;28;20047;-75
2023/12/04 01:19:05;;;;;;;13.00;11.68;;;;;;;;;;5069107;28;20073;-75
2023/12/04 01:21:31;;;;;;;10.45;9.35;;;;;;;;;;5070392;28;20094;-75
2023/12/04 01:23:56;;;;;;;14.65;12.57;;;;;;;;;;5061527;28;20028;-78
2023/12/04 01:26:21;;;;;;;18.08;13.98;;;;;;;;;;5068775;28;20033;-72
2023/12/04 01:28:47;;;;;;;11.85;10.48;;;;;;;;;;5071120;28;20024;-74
2023/12/04 01:31:13;;;;;;;12.88;11.50;;;;;;;;;;5073392;28;20020;-71
2023/12/04 01:33:38;;;;;;;19.77;15.25;;;;;;;;;;5065762;28;20031;-71
2023/12/04 01:36:04;;;;;;;15.60;12.77;;;;;;;;;;5069966;28;20115;-72
2023/12/04 01:38:29;;;;;;;13.25;10.20;;;;;;;;;;5070268;28;20060;-72
2023/12/04 01:40:54;;;;;;;11.50;10.30;;;;;;;;;;5051730;28;20115;-72
2023/12/04 01:43:20;;;;;;;13.23;11.43;;;;;;;;;;5063119;28;20064;-76
2023/12/04 01:45:45;;;;;;;9.70;8.77;;;;;;;;;;5060897;28;20028;-72
2023/12/04 01:48:10;;;;;;;12.48;11.18;;;;;;;;;;5071095;28;20039;-75
2023/12/04 01:50:36;;;;;;;11.35;10.05;;;;;;;;;;5053814;28;20038;-74
2023/12/04 01:53:02;;;;;;;12.70;11.40;;;;;;;;;;5067300;28;20515;-75
2023/12/04 01:55:28;;;;;;;13.80;12.38;;;;;;;;;;5065634;28;20124;-72
2023/12/04 01:57:55;;;;;;;11.95;10.85;;;;;;;;;;5075302;28;20016;-70
2023/12/04 02:00:21;;;;;;;12.18;10.98;;;;;;;;;;5055175;28;20323;-74
2023/12/04 02:02:46;;;;;;;13.70;12.30;;;;;;;;;;5071443;28;20115;-72
2023/12/04 02:05:12;;;;;;;12.57;11.38;;;;;;;;;;5072338;28;20122;-74
2023/12/04 02:07:40;;;;;;;13.20;11.80;;;;;;;;;;5070279;28;20099;-75
2023/12/04 02:10:06;;;;;;;16.52;14.93;;;;;;;;;;5074488;28;20024;-76
2023/12/04 02:12:31;;;;;;;13.20;11.68;;;;;;;;;;5063625;28;20097;-72
2023/12/04 02:14:57;;;;;;;14.10;12.60;;;;;;;;;;5072551;28;20955;-77
2023/12/04 02:17:23;;;;;;;16.15;14.55;;;;;;;;;;5054018;28;20031;-73
2023/12/04 02:19:48;;;;;;;11.02;10.00;;;;;;;;;;5064802;28;20107;-74
2023/12/04 02:22:14;;;;;;;15.10;13.60;;;;;;;;;;5064981;28;20024;-73
2023/12/04 02:24:39;;;;;;;18.75;16.85;;;;;;;;;;5071986;28;20056;-73
2023/12/04 02:27:09;;;;;;;15.30;12.75;;;;;;;;;;5070359;28;20028;-73
2023/12/04 02:29:47;;;;;;;9.43;8.52;;;;;;;;;;5073475;28;20016;-72
2023/12/04 02:32:15;;;;;;;11.30;10.10;;;;;;;;;;5078171;28;20051;-72
2023/12/04 02:34:41;;;;;;;15.68;13.98;;;;;;;;;;5069278;28;20031;-72
2023/12/04 02:37:08;;;;;;;28.75;25.73;;;;;;;;;;5063238;28;20344;-72
2023/12/04 02:39:33;;;;;;;92.32;82.35;;;;;;;;;;5067340;28;20043;-72
2023/12/04 02:41:59;;;;;;;64.80;57.75;;;;;;;;;;5070159;28;20024;-77
2023/12/04 02:44:24;;;;;;;42.85;38.25;;;;;;;;;;5069149;28;20129;-73
2023/12/04 02:46:49;;;;;;;40.92;36.55;;;;;;;;;;5069958;28;20028;-73
2023/12/04 02:49:14;;;;;;;47.80;42.08;;;;;;;;;;5071753;28;20027;-72
2023/12/04 02:51:41;;;;;;;26.00;23.30;;;;;;;;;;5071690;28;20048;-72
2023/12/04 02:54:06;;;;;;;17.65;15.75;;;;;;;;;;5065826;28;20081;-72
2023/12/04 02:56:31;;;;;;;18.67;16.88;;;;;;;;;;5072695;28;20035;-72
2023/12/04 02:58:57;;;;;;;14.80;13.30;;;;;;;;;;5053129;28;20028;-75
2023/12/04 03:01:22;;;;;;;11.55;10.43;;;;;;;;;;5064712;28;20052;-72
2023/12/04 03:03:47;;;;;;;10.88;9.80;;;;;;;;;;5071123;28;20024;-77
2023/12/04 03:06:15;;;;;;;13.18;11.65;;;;;;;;;;5060144;28;20020;-74
2023/12/04 03:08:41;;;;;;;12.05;10.88;;;;;;;;;;5070083;28;20023;-71
2023/12/04 03:11:06;;;;;;;15.07;13.52;;;;;;;;;;5075555;28;20420;-71
2023/12/04 03:13:32;;;;;;;15.02;13.52;;;;;;;;;;5069608;28;20039;-74
2023/12/04 03:15:57;;;;;;;13.98;12.57;;;;;;;;;;5062963;28;20075;-72
2023/12/04 03:18:25;;;;;;;14.93;13.43;;;;;;;;;;5066643;28;20020;-78
2023/12/04 03:20:50;;;;;;;22.55;18.88;;;;;;;;;;5068523;28;20028;-72
2023/12/04 03:23:15;;;;;;;18.27;15.82;;;;;;;;;;5067458;28;20454;-72
2023/12/04 03:25:41;;;;;;;17.58;15.73;;;;;;;;;;5064577;28;20411;-74
2023/12/04 03:28:06;;;;;;;54.17;37.78;;;;;;;;;;5069089;28;20109;-71
2023/12/04 03:30:31;;;;;;;41.60;31.17;;;;;;;;;;5067114;28;20123;-76
2023/12/04 03:32:57;;;;;;;30.90;24.65;;;;;;;;;;5069033;28;20406;-73
2023/12/04 03:35:22;;;;;;;51.22;38.40;;;;;;;;;;5069716;28;20078;-71
2023/12/04 03:37:49;;;;;;;42.58;32.10;;;;;;;;;;5068932;28;20071;-75
2023/12/04 03:40:15;;;;;;;35.85;28.35;;;;;;;;;;5074607;28;20024;-72
2023/12/04 03:42:40;;;;;;;29.63;25.20;;;;;;;;;;5069398;28;20086;-71
2023/12/04 03:45:06;;;;;;;22.20;19.85;;;;;;;;;;5067957;28;20028;-70
2023/12/04 03:47:31;;;;;;;18.38;16.48;;;;;;;;;;5073299;28;20432;-76
2023/12/04 03:49:57;;;;;;;20.55;17.08;;;;;;;;;;5066542;28;20040;-72
2023/12/04 03:52:22;;;;;;;17.35;15.55;;;;;;;;;;5061599;28;20060;-72
2023/12/04 03:54:47;;;;;;;17.73;15.82;;;;;;;;;;5061558;28;20077;-76
2023/12/04 03:57:13;;;;;;;22.60;19.90;;;;;;;;;;5058312;28;20043;-71
2023/12/04 03:59:38;;;;;;;24.45;21.75;;;;;;;;;;5065246;28;20059;-71
2023/12/04 04:02:03;;;;;;;24.23;21.63;;;;;;;;;;5068995;28;20466;-74
2023/12/04 04:04:29;;;;;;;29.30;26.13;;;;;;;;;;5068378;28;20028;-70
2023/12/04 04:06:54;;;;;;;34.92;27.90;;;;;;;;;;5061811;28;20150;-72
2023/12/04 04:09:20;;;;;;;28.63;23.25;;;;;;;;;;5066617;28;20032;-70
2023/12/04 04:11:45;;;;;;;27.25;24.33;;;;;;;;;;5068396;28;20047;-73
2023/12/04 04:14:10;;;;;;;23.35;19.70;;;;;;;;;;5069340;28;20023;-77
2023/12/04 04:16:36;;;;;;;20.23;16.65;;;;;;;;;;5048860;28;20067;-77
2023/12/04 04:19:01;;;;;;;15.85;14.20;;;;;;;;;;5075606;28;20047;-70
2023/12/04 04:21:26;;;;;;;16.73;15.02;;;;;;;;;;5069050;28;20494;-75
2023/12/04 04:23:53;;;;;;;17.85;16.05;;;;;;;;;;5062348;28;20016;-71
2023/12/04 04:26:18;;;;;;;18.85;16.85;;;;;;;;;;5059271;28;20029;-76
2023/12/04 04:28:44;;;;;;;17.80;16.02;;;;;;;;;;5059527;28;20462;-71
2023/12/04 04:31:09;;;;;;;16.70;14.90;;;;;;;;;;5058224;28;20109;-70
2023/12/04 04:33:34;;;;;;;17.13;15.32;;;;;;;;;;5057636;28;20032;-76
2023/12/04 04:36:00;;;;;;;33.15;27.45;;;;;;;;;;5059855;28;20024;-73
2023/12/04 04:38:25;;;;;;;46.65;37.95;;;;;;;;;;5060450;28;20059;-74
2023/12/04 04:40:52;;;;;;;48.95;39.55;;;;;;;;;;5060564;28;20029;-72
2023/12/04 04:43:22;;;;;;;79.22;49.42;;;;;;;;;;5057227;28;20024;-72
2023/12/04 04:45:48;;;;;;;58.00;43.50;;;;;;;;;;5004068;28;20032;-70
2023/12/04 04:48:13;;;;;;;43.58;35.25;;;;;;;;;;5060466;28;20032;-70
2023/12/04 04:50:38;;;;;;;59.58;40.80;;;;;;;;;;5041355;28;20123;-70
2023/12/04 04:53:04;;;;;;;51.47;36.97;;;;;;;;;;5077616;28;20426;-71
2023/12/04 04:55:30;;;;;;;57.47;35.47;;;;;;;;;;5081611;28;20431;-70
2023/12/04 04:57:55;;;;;;;63.80;48.47;;;;;;;;;;5089479;28;20862;-77
2023/12/04 05:00:21;;;;;;;52.42;40.53;;;;;;;;;;5090532;28;20030;-74
2023/12/04 05:02:46;;;;;;;29.48;23.40;;;;;;;;;;5088528;28;23698;-71
2023/12/04 05:05:11;;;;;;;25.42;21.80;;;;;;;;;;5090462;28;20020;-73
2023/12/04 05:07:37;;;;;;;30.77;27.17;;;;;;;;;;5092361;28;20063;-73
2023/12/04 05:10:02;;;;;;;30.25;26.95;;;;;;;;;;5095566;28;20027;-72
2023/12/04 05:12:28;;;;;;;25.45;22.20;;;;;;;;;;5095396;28;20032;-70
2023/12/04 05:14:53;;;;;;;23.65;21.02;;;;;;;;;;5090622;28;20036;-70
2023/12/04 05:17:18;;;;;;;23.73;20.35;;;;;;;;;;5093311;28;20468;-75
2023/12/04 05:19:44;;;;;;;21.63;19.42;;;;;;;;;;5093316;28;20081;-71
2023/12/04 05:22:09;;;;;;;23.30;20.50;;;;;;;;;;5092217;28;20032;-71
2023/12/04 05:24:35;;;;;;;28.85;25.90;;;;;;;;;;5097877;28;20027;-79
2023/12/04 05:27:01;;;;;;;21.42;19.33;;;;;;;;;;5095028;28;20496;-72
2023/12/04 05:29:26;;;;;;;32.50;28.98;;;;;;;;;;5092334;28;20035;-76
2023/12/04 05:31:51;;;;;;;35.42;31.45;;;;;;;;;;5082725;28;20032;-75
2023/12/04 05:34:17;;;;;;;70.57;57.05;;;;;;;;;;5087553;28;20031;-70
2023/12/04 05:36:42;;;;;;;61.70;39.42;;;;;;;;;;5094943;28;20121;-71
2023/12/04 05:39:08;;;;;;;58.03;44.83;;;;;;;;;;5081691;28;20020;-70
2023/12/04 05:41:33;;;;;;;43.08;35.22;;;;;;;;;;5094924;28;20027;-71
2023/12/04 05:43:58;;;;;;;38.08;31.58;;;;;;;;;;5086292;28;20387;-75
2023/12/04 05:46:24;;;;;;;27.65;24.40;;;;;;;;;;5086852;28;20061;-72
2023/12/04 05:48:49;;;;;;;28.00;24.98;;;;;;;;;;5089025;28;20035;-71
2023/12/04 05:51:15;;;;;;;39.70;34.72;;;;;;;;;;5082177;28;20086;-77
2023/12/04 05:53:40;;;;;;;62.28;54.65;;;;;;;;;;5071029;28;20060;-70
2023/12/04 05:56:06;;;;;;;51.20;44.97;;;;;;;;;;5069200;28;20020;-71
2023/12/04 05:58:32;;;;;;;42.97;38.42;;;;;;;;;;5072818;28;20508;-72
2023/12/04 06:00:57;;;;;;;32.15;27.98;;;;;;;;;;5072347;28;20040;-73
2023/12/04 06:03:22;;;;;;;71.30;53.10;;;;;;;;;;5070125;28;20035;-75
2023/12/04 06:05:48;;;;;;;50.50;42.22;;;;;;;;;;5071767;28;20028;-73
2023/12/04 06:08:14;;;;;;;54.10;46.03;;;;;;;;;;5075937;28;20024;-74
2023/12/04 06:10:39;;;;;;;58.67;49.33;;;;;;;;;;5065078;28;20031;-69
2023/12/04 06:13:05;;;;;;;86.95;69.00;;;;;;;;;;5061606;28;20127;-71
2023/12/04 06:15:30;;;;;;;65.38;49.65;;;;;;;;;;5041535;28;20115;-70
2023/12/04 06:17:55;;;;;;;57.35;44.60;;;;;;;;;;5058553;28;20032;-72
2023/12/04 06:20:21;;;;;;;67.20;49.90;;;;;;;;;;5060741;28;20360;-74
2023/12/04 06:22:46;;;;;;;415.52;304.52;;;;;;;;;;5065975;28;20170;-73
2023/12/04 06:25:12;;;;;;;230.18;161.63;;;;;;;;;;5071630;28;20082;-74
2023/12/04 06:27:38;;;;;;;97.40;74.80;;;;;;;;;;5071959;28;20024;-79
2023/12/04 06:30:04;;;;;;;62.65;50.40;;;;;;;;;;5067690;28;20482;-73
2023/12/04 06:32:30;;;;;;;83.68;67.00;;;;;;;;;;5074909;28;20050;-71
2023/12/04 06:34:55;;;;;;;140.45;108.57;;;;;;;;;;5072582;28;20050;-73
2023/12/04 06:37:21;;;;;;;238.15;183.48;;;;;;;;;;5069330;28;20036;-70
2023/12/04 06:39:48;;;;;;;233.82;172.30;;;;;;;;;;5069918;28;20020;-77
2023/12/04 06:42:13;;;;;;;79.13;62.83;;;;;;;;;;5069590;28;20028;-75
2023/12/04 06:44:39;;;;;;;194.13;161.52;;;;;;;;;;5065307;28;20030;-73
2023/12/04 06:47:04;;;;;;;76.53;61.50;;;;;;;;;;5060126;28;20431;-72
2023/12/04 06:49:31;;;;;;;111.82;86.65;;;;;;;;;;5063843;28;20032;-72
2023/12/04 06:51:56;;;;;;;92.78;73.20;;;;;;;;;;5071147;28;20109;-73
2023/12/04 06:54:21;;;;;;;128.80;101.50;;;;;;;;;;5073645;28;20037;-74
2023/12/04 06:56:47;;;;;;;78.95;63.80;;;;;;;;;;5072036;28;20440;-72
2023/12/04 06:59:12;;;;;;;58.08;49.88;;;;;;;;;;5072139;28;20027;-74
2023/12/04 07:01:38;;;;;;;59.00;51.40;;;;;;;;;;5070080;28;20028;-74
2023/12/04 07:04:09;;;;;;;50.08;44.67;;;;;;;;;;5071425;28;20055;-73
2023/12/04 07:06:35;;;;;;;64.00;55.97;;;;;;;;;;5071988;28;20375;-72
2023/12/04 07:09:00;;;;;;;123.97;91.30;;;;;;;;;;5072920;28;20024;-72
2023/12/04 07:11:26;;;;;;;64.70;55.60;;;;;;;;;;5068937;28;20025;-71
2023/12/04 07:13:51;;;;;;;66.95;54.63;;;;;;;;;;5070517;28;20032;-71
2023/12/04 07:16:17;;;;;;;35.88;32.03;;;;;;;;;;5071551;28;20032;-75
2023/12/04 07:18:42;;;;;;;33.28;29.83;;;;;;;;;;5074987;28;20020;-76
2023/12/04 07:21:08;;;;;;;31.10;28.02;;;;;;;;;;5061463;28;20033;-74
2023/12/04 07:23:33;;;;;;;32.88;29.67;;;;;;;;;;5070324;28;20028;-73
2023/12/04 07:25:58;;;;;;;16.58;15.05;;;;;;;;;;5068357;28;20032;-74
2023/12/04 07:28:24;;;;;;;22.08;19.77;;;;;;;;;;5066275;28;20040;-73
2023/12/04 07:30:49;;;;;;;408.15;274.90;;;;;;;;;;5067025;28;20059;-75
2023/12/04 07:33:14;;;;;;;569.33;453.63;;;;;;;;;;5062088;28;20447;-73
2023/12/04 07:35:40;;;;;;;108.30;82.88;;;;;;;;;;5067891;28;20035;-73
2023/12/04 07:38:06;;;;;;;111.47;88.75;;;;;;;;;;5071628;28;20035;-74
2023/12/04 07:40:32;;;;;;;66.13;55.60;;;;;;;;;;5068989;28;20380;-76
2023/12/04 07:42:57;;;;;;;161.15;111.85;;;;;;;;;;5070438;28;20037;-76
2023/12/04 07:45:23;;;;;;;97.95;73.10;;;;;;;;;;5055432;28;20024;-74
2023/12/04 07:47:50;;;;;;;361.85;266.30;;;;;;;;;;5070372;28;20025;-74
2023/12/04 07:50:15;;;;;;;127.18;107.53;;;;;;;;;;5070615;28;20029;-76
2023/12/04 07:52:41;;;;;;;59.67;53.10;;;;;;;;;;5084447;28;20052;-73
2023/12/04 07:55:06;;;;;;;82.60;56.60;;;;;;;;;;5089824;28;20435;-74
2023/12/04 07:57:32;;;;;;;48.17;38.17;;;;;;;;;;5083339;28;21109;-74
2023/12/04 07:59:57;;;;;;;34.15;27.75;;;;;;;;;;5093477;28;20358;-73
2023/12/04 08:02:22;;;;;;;22.27;19.77;;;;;;;;;;5094253;28;20438;-73
2023/12/04 08:04:48;;;;;;;185.10;99.63;;;;;;;;;;5090318;28;20402;-73
2023/12/04 08:07:13;;;;;;;47.33;31.55;;;;;;;;;;5092417;28;20414;-73
2023/12/04 08:09:38;;;;;;;209.45;170.77;;;;;;;;;;5091682;28;20027;-74
2023/12/04 08:12:04;;;;;;;133.30;87.40;;;;;;;;;;5096024;28;20046;-72
2023/12/04 08:14:29;;;;;;;166.43;92.15;;;;;;;;;;5084066;28;20042;-77
2023/12/04 08:16:55;;;;;;;207.50;120.60;;;;;;;;;;5077076;28;20031;-77
2023/12/04 08:19:20;;;;;;;49.42;35.50;;;;;;;;;;5089075;28;20032;-75
2023/12/04 08:21:46;;;;;;;56.55;42.95;;;;;;;;;;5083804;28;20031;-76
2023/12/04 08:24:11;;;;;;;77.07;51.20;;;;;;;;;;5077803;28;20118;-75
2023/12/04 08:26:37;;;;;;;23.05;20.85;;;;;;;;;;5076619;28;20027;-73
2023/12/04 08:29:02;;;;;;;19.60;16.13;;;;;;;;;;5078726;28;20031;-73
2023/12/04 08:31:28;;;;;;;20.23;18.25;;;;;;;;;;5072894;28;20511;-74
2023/12/04 08:33:53;;;;;;;25.60;20.80;;;;;;;;;;5088562;28;20442;-73
2023/12/04 08:36:19;;;;;;;27.90;22.80;;;;;;;;;;5095224;28;20023;-76
2023/12/04 08:38:45;;;;;;;60.80;45.78;;;;;;;;;;5091716;28;20020;-80
2023/12/04 08:41:10;;;;;;;47.97;42.65;;;;;;;;;;5091872;28;20106;-74
2023/12/04 08:43:35;;;;;;;53.10;43.25;;;;;;;;;;5098741;28;20028;-76
2023/12/04 08:46:01;;;;;;;31.33;24.75;;;;;;;;;;5093768;28;20031;-73
2023/12/04 08:48:26;;;;;;;50.28;37.50;;;;;;;;;;5091993;28;20031;-72
2023/12/04 08:50:51;;;;;;;68.28;49.85;;;;;;;;;;5085901;28;20098;-73
2023/12/04 08:53:17;;;;;;;52.55;40.53;;;;;;;;;;5059947;28;20090;-73
2023/12/04 08:55:42;;;;;;;50.65;41.22;;;;;;;;;;5066334;28;20040;-72
2023/12/04 08:58:07;;;;;;;61.40;47.38;;;;;;;;;;5058425;28;20447;-73
2023/12/04 09:00:35;;;;;;;38.33;34.38;;;;;;;;;;5066446;28;20055;-73
2023/12/04 09:03:01;;;;;;;24.55;21.65;;;;;;;;;;5066796;28;20032;-75
2023/12/04 09:05:27;;;;;;;19.58;17.50;;;;;;;;;;5075609;28;20064;-73
2023/12/04 09:07:53;;;;;;;42.22;33.17;;;;;;;;;;5073514;28;20056;-74
2023/12/04 09:10:18;;;;;;;19.60;17.50;;;;;;;;;;5070387;28;20036;-73
2023/12/04 09:12:44;;;;;;;18.85;16.92;;;;;;;;;;5072217;28;20032;-73
2023/12/04 09:15:11;;;;;;;14.82;12.77;;;;;;;;;;5075753;28;20033;-73
2023/12/04 09:17:36;;;;;;;13.38;12.07;;;;;;;;;;5072843;28;20024;-74
2023/12/04 09:20:02;;;;;;;12.68;11.48;;;;;;;;;;5071910;28;20037;-73
2023/12/04 09:22:28;;;;;;;16.95;15.20;;;;;;;;;;5073113;28;20036;-75
2023/12/04 09:24:53;;;;;;;16.13;14.43;;;;;;;;;;5070990;28;20029;-75
2023/12/04 09:27:18;;;;;;;14.80;13.38;;;;;;;;;;5072495;28;20028;-76
2023/12/04 09:29:44;;;;;;;14.38;12.88;;;;;;;;;;5070665;28;20081;-74
2023/12/04 09:32:12;;;;;;;25.90;20.95;;;;;;;;;;5068796;28;20040;-73
2023/12/04 09:34:37;;;;;;;29.58;26.38;;;;;;;;;;5060210;28;20032;-72
2023/12/04 09:37:03;;;;;;;36.40;32.55;;;;;;;;;;5059928;28;20028;-73
2023/12/04 09:39:29;;;;;;;27.52;24.55;;;;;;;;;;5060155;28;20032;-71
2023/12/04 09:41:55;;;;;;;10.25;9.25;;;;;;;;;;5061338;28;20047;-73
2023/12/04 09:44:22;;;;;;;29.08;25.88;;;;;;;;;;5061254;28;20067;-72
2023/12/04 09:46:47;;;;;;;18.20;16.33;;;;;;;;;;5059012;28;20023;-71
2023/12/04 09:49:13;;;;;;;29.33;25.73;;;;;;;;;;5061730;28;20032;-71
2023/12/04 09:51:38;;;;;;;24.58;20.17;;;;;;;;;;5056859;28;20045;-78
2023/12/04 09:54:06;;;;;;;10.18;9.10;;;;;;;;;;5059882;28;20042;-74
2023/12/04 09:56:33;;;;;;;34.85;25.27;;;;;;;;;;5059347;28;20032;-71
2023/12/04 09:59:00;;;;;;;19.65;15.75;;;;;;;;;;5043951;28;20025;-73
2023/12/04 10:01:29;;;;;;;27.15;22.40;;;;;;;;;;5061334;28;20055;-75
2023/12/04 10:03:57;;;;;;;11.45;10.25;;;;;;;;;;5060133;28;20351;-72
2023/12/04 10:06:23;;;;;;;10.13;9.13;;;;;;;;;;5062656;28;20097;-72
2023/12/04 10:08:49;;;;;;;17.38;15.70;;;;;;;;;;5057079;28;20409;-73
2023/12/04 10:11:14;;;;;;;14.52;13.18;;;;;;;;;;5059234;28;20019;-71
2023/12/04 10:13:43;;;;;;;34.42;25.70;;;;;;;;;;5060003;28;20343;-72
2023/12/04 10:16:08;;;;;;;7.63;6.93;;;;;;;;;;5058662;28;20050;-73
2023/12/04 10:18:34;;;;;;;18.50;16.60;;;;;;;;;;5061170;28;20099;-73
2023/12/04 10:20:59;;;;;;;15.32;12.45;;;;;;;;;;5058757;28;20025;-73
2023/12/04 10:23:42;;;;;;;12.20;10.93;;;;;;;;;;5056194;28;20451;-75
2023/12/04 10:26:07;;;;;;;7.28;6.60;;;;;;;;;;5057048;28;20023;-78
2023/12/04 10:28:33;;;;;;;6.85;6.25;;;;;;;;;;5056921;28;20073;-72
2023/12/04 10:30:59;;;;;;;13.88;12.52;;;;;;;;;;5067798;28;20036;-74
2023/12/04 10:33:25;;;;;;;15.68;13.13;;;;;;;;;;5071539;28;20109;-72
2023/12/04 10:35:51;;;;;;;13.77;10.02;;;;;;;;;;5054414;28;20047;-73
2023/12/04 10:38:18;;;;;;;26.13;17.02;;;;;;;;;;5066890;28;20540;-72
2023/12/04 10:40:43;;;;;;;8.80;7.57;;;;;;;;;;5063543;28;20492;-77
2023/12/04 10:43:08;;;;;;;25.27;16.25;;;;;;;;;;5065375;28;20028;-73
2023/12/04 10:45:34;;;;;;;7.78;6.97;;;;;;;;;;5077265;28;20126;-71
2023/12/04 10:47:59;;;;;;;38.80;25.45;;;;;;;;;;5071019;28;20020;-72
2023/12/04 10:50:25;;;;;;;16.20;13.23;;;;;;;;;;5072696;28;20045;-71
2023/12/04 10:52:53;;;;;;;9.00;7.88;;;;;;;;;;5069853;28;20060;-72
2023/12/04 10:55:19;;;;;;;5.78;5.15;;;;;;;;;;5070311;28;20029;-72
2023/12/04 10:57:44;;;;;;;4.90;4.50;;;;;;;;;;5067195;28;20024;-74
2023/12/04 11:00:11;;;;;;;7.53;6.80;;;;;;;;;;5069288;28;20028;-72
2023/12/04 11:02:40;;;;;;;7.95;7.15;;;;;;;;;;5072691;28;20073;-73
2023/12/04 11:05:13;;;;;;;14.63;13.20;;;;;;;;;;5068734;28;20085;-72
2023/12/04 11:07:41;;;;;;;29.42;26.58;;;;;;;;;;5068729;28;20056;-74
2023/12/04 11:10:08;;;;;;;27.10;19.35;;;;;;;;;;5069865;28;20028;-72
2023/12/04 11:12:34;;;;;;;15.63;12.65;;;;;;;;;;5072805;28;20028;-71
2023/12/04 11:15:02;;;;;;;15.98;14.40;;;;;;;;;;5069390;28;20024;-78
2023/12/04 11:17:31;;;;;;;9.45;8.65;;;;;;;;;;5069521;28;20206;-74
2023/12/04 11:20:03;;;;;;;11.05;10.02;;;;;;;;;;5074329;28;20090;-75
2023/12/04 11:22:28;;;;;;;11.50;10.40;;;;;;;;;;5070853;28;20028;-73
2023/12/04 11:24:55;;;;;;;13.18;11.88;;;;;;;;;;5053782;28;20038;-71
2023/12/04 11:27:22;;;;;;;11.90;10.70;;;;;;;;;;5072990;28;20039;-72
2023/12/04 11:29:48;;;;;;;28.00;21.45;;;;;;;;;;5069046;28;20496;-77
2023/12/04 11:32:17;;;;;;;7.13;6.43;;;;;;;;;;5058895;28;20051;-75
2023/12/04 11:34:50;;;;;;;5.28;4.78;;;;;;;;;;5066680;28;20536;-72
2023/12/04 11:37:15;;;;;;;13.98;12.68;;;;;;;;;;5065067;28;20037;-72
2023/12/04 11:39:41;;;;;;;12.07;10.45;;;;;;;;;;5069443;28;20038;-73
2023/12/04 11:42:06;;;;;;;11.45;10.45;;;;;;;;;;5070362;28;20058;-72
2023/12/04 11:44:32;;;;;;;6.32;5.72;;;;;;;;;;5071692;28;20025;-72
2023/12/04 11:47:03;;;;;;;9.45;8.57;;;;;;;;;;5070694;28;20363;-73
2023/12/04 11:49:29;;;;;;;7.75;7.05;;;;;;;;;;5070906;28;20016;-73
2023/12/04 11:51:57;;;;;;;14.93;13.52;;;;;;;;;;5075323;28;20113;-76
2023/12/04 11:54:25;;;;;;;13.38;12.15;;;;;;;;;;5066954;28;20336;-72
2023/12/04 11:57:09;;;;;;;12.30;10.48;;;;;;;;;;5067907;28;20051;-74
2023/12/04 11:59:37;;;;;;;11.57;10.38;;;;;;;;;;5071642;28;20138;-76
2023/12/04 12:02:02;;;;;;;10.88;9.20;;;;;;;;;;5066225;28;20028;-72
2023/12/04 12:04:29;;;;;;;7.18;6.40;;;;;;;;;;5066784;28;20404;-72
2023/12/04 12:06:54;;;;;;;12.18;10.98;;;;;;;;;;5071149;28;20024;-74
2023/12/04 12:09:20;;;;;;;8.80;7.05;;;;;;;;;;5072899;28;20036;-74
2023/12/04 12:11:45;;;;;;;11.95;10.75;;;;;;;;;;5075315;28;20032;-71
2023/12/04 12:14:10;;;;;;;7.97;7.18;;;;;;;;;;5076971;28;20031;-72
2023/12/04 12:16:36;;;;;;;22.55;18.92;;;;;;;;;;5075797;28;20032;-71
2023/12/04 12:19:01;;;;;;;11.15;9.82;;;;;;;;;;5073793;28;20115;-74
2023/12/04 12:21:27;;;;;;;8.20;7.40;;;;;;;;;;5075301;28;20024;-72
2023/12/04 12:23:53;;;;;;;9.32;8.43;;;;;;;;;;5075664;28;20028;-73
2023/12/04 12:26:19;;;;;;;7.88;7.18;;;;;;;;;;5073408;28;20028;-74
2023/12/04 12:28:45;;;;;;;7.25;6.45;;;;;;;;;;5077964;28;20036;-71
2023/12/04 12:31:10;;;;;;;6.38;5.78;;;;;;;;;;5068631;28;20043;-73
2023/12/04 12:33:35;;;;;;;14.15;12.65;;;;;;;;;;5073751;28;20032;-72
2023/12/04 12:36:03;;;;;;;9.60;8.63;;;;;;;;;;5073908;28;20025;-72
2023/12/04 12:38:29;;;;;;;17.80;16.10;;;;;;;;;;5070666;28;20028;-73
2023/12/04 12:40:55;;;;;;;9.95;8.95;;;;;;;;;;5055653;28;20491;-73
2023/12/04 12:43:20;;;;;;;65.10;50.92;;;;;;;;;;5071811;28;20063;-72
2023/12/04 12:45:48;;;;;;;16.05;14.00;;;;;;;;;;5074713;28;20226;-72
2023/12/04 12:48:14;;;;;;;51.15;42.47;;;;;;;;;;5075935;28;20060;-73
2023/12/04 12:50:39;;;;;;;14.55;12.60;;;;;;;;;;5074866;28;20027;-72
2023/12/04 12:53:04;;;;;;;22.40;20.02;;;;;;;;;;5074412;28;20040;-76
2023/12/04 12:55:30;;;;;;;18.65;16.75;;;;;;;;;;5075341;28;20354;-73
2023/12/04 12:57:56;;;;;;;9.30;8.40;;;;;;;;;;5071938;28;20020;-71
2023/12/04 13:00:22;;;;;;;33.85;29.50;;;;;;;;;;5072356;28;20021;-72
2023/12/04 13:02:48;;;;;;;13.20;11.48;;;;;;;;;;5068385;28;20031;-72
2023/12/04 13:05:13;;;;;;;14.70;13.20;;;;;;;;;;5077175;28;20020;-72
2023/12/04 13:07:38;;;;;;;26.02;23.38;;;;;;;;;;5077460;28;20016;-76
2023/12/04 13:10:05;;;;;;;13.82;12.27;;;;;;;;;;5073801;28;20038;-72
2023/12/04 13:12:30;;;;;;;13.60;12.13;;;;;;;;;;5070566;28;20169;-72
2023/12/04 13:14:56;;;;;;;12.27;10.98;;;;;;;;;;5076172;28;20111;-73
2023/12/04 13:17:21;;;;;;;15.43;12.02;;;;;;;;;;5075624;28;20031;-73
2023/12/04 13:19:46;;;;;;;5.70;5.20;;;;;;;;;;5076487;28;20161;-73
2023/12/04 13:22:12;;;;;;;5.82;5.25;;;;;;;;;;5070962;28;20335;-78
2023/12/04 13:24:37;;;;;;;12.05;10.80;;;;;;;;;;5077427;28;20719;-78
2023/12/04 13:27:03;;;;;;;17.85;16.02;;;;;;;;;;5075334;28;20016;-77
2023/12/04 13:29:28;;;;;;;12.45;11.05;;;;;;;;;;5073283;28;20043;-74
2023/12/04 13:31:54;;;;;;;10.82;9.73;;;;;;;;;;5068071;28;20081;-76
2023/12/04 13:34:19;;;;;;;12.25;9.63;;;;;;;;;;5071107;28;20063;-74
2023/12/04 13:36:45;;;;;;;13.93;11.90;;;;;;;;;;5074681;28;20052;-73
2023/12/04 13:39:16;;;;;;;45.15;32.92;;;;;;;;;;5072728;28;20403;-73
2023/12/04 13:44:30;;;;;;;18.75;16.15;;;;;;;;;;5058584;28;20091;-72
2023/12/04 13:46:55;;;;;;;18.52;16.48;;;;;;;;;;5069416;28;20451;-73
2023/12/04 13:49:21;;;;;;;31.52;26.52;;;;;;;;;;5073700;28;20016;-73
2023/12/04 13:51:49;;;;;;;19.25;17.25;;;;;;;;;;5068784;28;20040;-74
2023/12/04 13:54:41;;;;;;;16.52;14.70;;;;;;;;;;5075327;28;20032;-71
2023/12/04 13:57:00;;;;;;;14.07;12.50;;;;;;;;;;5069787;28;20035;-74
2023/12/04 13:59:27;;;;;;;11.07;9.95;;;;;;;;;;5066972;28;20032;-72
2023/12/04 14:01:54;;;;;;;12.95;11.65;;;;;;;;;;5070990;28;20328;-71
2023/12/04 14:04:19;;;;;;;14.18;12.48;;;;;;;;;;5071286;28;20037;-77
2023/12/04 14:06:45;;;;;;;11.85;10.57;;;;;;;;;;5071511;28;20411;-73
2023/12/04 14:09:14;;;;;;;15.75;14.10;;;;;;;;;;5075472;28;20020;-73
2023/12/04 14:11:39;;;;;;;12.45;10.95;;;;;;;;;;5073673;28;20032;-75
2023/12/04 14:14:05;;;;;;;24.75;20.05;;;;;;;;;;5037751;28;20032;-75